createdAt,value
2017-05-08T00:00:56.314Z,1007.16
2017-05-08T00:02:08.860Z,1007.18
2017-05-08T00:03:21.105Z,1007.14
2017-05-08T00:04:33.345Z,1007.2
2017-05-08T00:05:45.877Z,1007.2
2017-05-08T00:06:58.136Z,1007.15
2017-05-08T00:08:10.367Z,1007.2
2017-05-08T00:09:22.611Z,1007.18
2017-05-08T00:10:35.157Z,1007.18
2017-05-08T00:11:47.680Z,1007.19
2017-05-08T00:13:00.249Z,1007.2
2017-05-08T00:14:12.766Z,1007.17
2017-05-08T00:15:24.995Z,1007.14
2017-05-08T00:16:37.535Z,1007.21
2017-05-08T00:17:50.071Z,1007.16
2017-05-08T00:19:02.333Z,1007.15
2017-05-08T00:20:14.296Z,1007.18
2017-05-08T00:21:26.820Z,1007.09
2017-05-08T00:22:39.341Z,1007.13
2017-05-08T00:23:51.880Z,1007.13
2017-05-08T00:25:04.406Z,1007.12
2017-05-08T00:26:16.945Z,1007.1
2017-05-08T00:27:29.199Z,1007.11
2017-05-08T00:28:41.972Z,1007.11
2017-05-08T00:29:54.506Z,1007.12
2017-05-08T00:31:06.713Z,1007.16
2017-05-08T00:32:19.258Z,1007.17
2017-05-08T00:33:31.805Z,1007.18
2017-05-08T00:34:44.047Z,1007.16
2017-05-08T00:35:56.572Z,1007.14
2017-05-08T00:37:08.813Z,1007.14
2017-05-08T00:38:20.759Z,1007.1
2017-05-08T00:39:33.272Z,1007.1
2017-05-08T00:40:45.504Z,1007.03
2017-05-08T00:41:58.054Z,1007.06
2017-05-08T00:43:10.275Z,1007.04
2017-05-08T00:44:22.791Z,1007.06
2017-05-08T00:45:35.319Z,1007.08
2017-05-08T00:46:47.873Z,1007.1
2017-05-08T00:48:00.382Z,1007.08
2017-05-08T00:49:12.922Z,1007.04
2017-05-08T00:50:25.171Z,1007.02
2017-05-08T00:51:37.711Z,1006.99
2017-05-08T00:52:50.257Z,1006.96
2017-05-08T00:54:02.786Z,1006.96
2017-05-08T00:55:15.356Z,1006.97
2017-05-08T00:56:27.580Z,1006.96
2017-05-08T00:57:40.122Z,1006.93
2017-05-08T00:58:52.343Z,1006.92
2017-05-08T01:00:04.886Z,1006.89
2017-05-08T01:01:17.410Z,1006.88
2017-05-08T01:02:29.955Z,1006.89
2017-05-08T01:03:42.490Z,1006.88
2017-05-08T01:04:55.020Z,1006.88
2017-05-08T01:06:07.564Z,1006.86
2017-05-08T01:07:20.103Z,1006.89
2017-05-08T01:08:32.611Z,1006.84
2017-05-08T01:09:45.152Z,1006.85
2017-05-08T01:10:57.677Z,1006.85
2017-05-08T01:12:10.226Z,1006.8
2017-05-08T01:13:22.146Z,1006.79
2017-05-08T01:14:34.732Z,1006.77
2017-05-08T01:15:47.262Z,1006.77
2017-05-08T01:16:59.804Z,1006.77
2017-05-08T01:18:12.350Z,1006.79
2017-05-08T01:19:24.902Z,1006.73
2017-05-08T01:20:37.470Z,1006.78
2017-05-08T01:21:50.020Z,1006.79
2017-05-08T01:23:02.861Z,1006.79
2017-05-08T01:24:15.406Z,1006.78
2017-05-08T01:25:27.599Z,1006.81
2017-05-08T01:26:39.799Z,1006.83
2017-05-08T01:27:52.371Z,1006.8
2017-05-08T01:29:04.617Z,1006.76
2017-05-08T01:30:16.838Z,1006.73
2017-05-08T01:31:29.107Z,1006.72
2017-05-08T01:32:41.631Z,1006.72
2017-05-08T01:33:54.174Z,1006.77
2017-05-08T01:35:06.759Z,1006.83
2017-05-08T01:36:18.985Z,1006.82
2017-05-08T01:37:31.511Z,1006.78
2017-05-08T01:38:43.434Z,1006.8
2017-05-08T01:39:56.001Z,1006.78
2017-05-08T01:41:07.944Z,1006.76
2017-05-08T01:42:20.502Z,1006.82
2017-05-08T01:43:33.038Z,1006.82
2017-05-08T01:44:45.810Z,1006.82
2017-05-08T01:45:58.305Z,1006.78
2017-05-08T01:47:10.830Z,1006.79
2017-05-08T01:48:23.053Z,1006.78
2017-05-08T01:49:35.268Z,1006.82
2017-05-08T01:50:47.817Z,1006.81
2017-05-08T01:52:00.362Z,1006.76
2017-05-08T01:53:12.016Z,1006.79
2017-05-08T01:54:24.577Z,1006.79
2017-05-08T01:55:37.076Z,1006.76
2017-05-08T01:56:49.622Z,1006.73
2017-05-08T01:58:02.164Z,1006.77
2017-05-08T01:59:14.086Z,1006.8
2017-05-08T02:00:26.639Z,1006.78
2017-05-08T02:01:38.859Z,1006.83
2017-05-08T02:02:51.094Z,1006.76
2017-05-08T02:04:03.648Z,1006.75
2017-05-08T02:05:15.590Z,1006.78
2017-05-08T02:06:28.415Z,1006.83
2017-05-08T02:07:40.975Z,1006.81
2017-05-08T02:08:53.205Z,1006.8
2017-05-08T02:10:05.754Z,1006.84
2017-05-08T02:11:18.290Z,1006.83
2017-05-08T02:12:30.525Z,1006.84
2017-05-08T02:13:43.066Z,1006.85
2017-05-08T02:14:55.600Z,1006.85
2017-05-08T02:16:08.145Z,1006.83
2017-05-08T02:17:20.667Z,1006.77
2017-05-08T02:18:33.200Z,1006.72
2017-05-08T02:19:45.734Z,1006.7
2017-05-08T02:20:58.239Z,1006.67
2017-05-08T02:22:10.487Z,1006.72
2017-05-08T02:23:23.032Z,1006.67
2017-05-08T02:24:35.550Z,1006.66
2017-05-08T02:25:48.070Z,1006.66
2017-05-08T02:27:00.612Z,1006.63
2017-05-08T02:28:13.137Z,1006.65
2017-05-08T02:29:25.661Z,1006.65
2017-05-08T02:30:37.907Z,1006.68
2017-05-08T02:31:50.128Z,1006.65
2017-05-08T02:33:02.370Z,1006.67
2017-05-08T02:34:14.917Z,1006.66
2017-05-08T02:35:27.430Z,1006.63
2017-05-08T02:36:39.988Z,1006.61
2017-05-08T02:37:52.529Z,1006.59
2017-05-08T02:39:04.733Z,1006.6
2017-05-08T02:40:16.952Z,1006.57
2017-05-08T02:41:29.495Z,1006.59
2017-05-08T02:42:42.015Z,1006.55
2017-05-08T02:43:54.538Z,1006.52
2017-05-08T02:45:06.773Z,1006.51
2017-05-08T02:46:19.298Z,1006.56
2017-05-08T02:47:31.872Z,1006.6
2017-05-08T02:48:44.393Z,1006.56
2017-05-08T02:49:57.193Z,1006.58
2017-05-08T02:51:09.765Z,1006.57
2017-05-08T02:52:21.955Z,1006.62
2017-05-08T02:53:34.183Z,1006.62
2017-05-08T02:54:46.725Z,1006.62
2017-05-08T02:55:59.289Z,1006.66
2017-05-08T02:57:11.838Z,1006.67
2017-05-08T02:58:24.069Z,1006.64
2017-05-08T02:59:36.606Z,1006.65
2017-05-08T03:00:49.132Z,1006.65
2017-05-08T03:02:01.675Z,1006.65
2017-05-08T03:03:13.895Z,1006.69
2017-05-08T03:04:26.444Z,1006.65
2017-05-08T03:05:38.989Z,1006.7
2017-05-08T03:06:51.506Z,1006.67
2017-05-08T03:08:04.003Z,1006.71
2017-05-08T03:09:16.506Z,1006.72
2017-05-08T03:10:29.044Z,1006.71
2017-05-08T03:11:41.811Z,1006.72
2017-05-08T03:12:53.712Z,1006.75
2017-05-08T03:14:06.265Z,1006.72
2017-05-08T03:15:18.499Z,1006.72
2017-05-08T03:16:31.073Z,1006.72
2017-05-08T03:17:43.299Z,1006.71
2017-05-08T03:18:55.546Z,1006.76
2017-05-08T03:20:08.090Z,1006.78
2017-05-08T03:21:20.333Z,1006.78
2017-05-08T03:22:32.908Z,1006.81
2017-05-08T03:23:45.430Z,1006.76
2017-05-08T03:24:57.974Z,1006.8
2017-05-08T03:26:10.517Z,1006.78
2017-05-08T03:27:22.741Z,1006.79
2017-05-08T03:28:35.262Z,1006.8
2017-05-08T03:29:47.813Z,1006.77
2017-05-08T03:31:00.359Z,1006.77
2017-05-08T03:32:12.925Z,1006.8
2017-05-08T03:33:25.448Z,1006.83
2017-05-08T03:34:37.965Z,1006.78
2017-05-08T03:35:50.487Z,1006.73
2017-05-08T03:37:03.024Z,1006.76
2017-05-08T03:38:15.250Z,1006.79
2017-05-08T03:39:27.497Z,1006.77
2017-05-08T03:40:40.037Z,1006.8
2017-05-08T03:41:52.561Z,1006.84
2017-05-08T03:43:04.813Z,1006.79
2017-05-08T03:44:17.658Z,1006.78
2017-05-08T03:45:30.175Z,1006.8
2017-05-08T03:46:42.702Z,1006.85
2017-05-08T03:47:55.252Z,1006.84
2017-05-08T03:49:07.795Z,1006.85
2017-05-08T03:50:20.335Z,1006.87
2017-05-08T03:51:32.872Z,1006.85
2017-05-08T03:52:45.401Z,1006.87
2017-05-08T03:53:57.939Z,1006.89
2017-05-08T03:55:10.171Z,1006.86
2017-05-08T03:56:22.689Z,1006.9
2017-05-08T03:57:35.210Z,1006.95
2017-05-08T03:58:47.430Z,1006.95
2017-05-08T03:59:59.962Z,1006.98
2017-05-08T04:01:12.519Z,1006.99
2017-05-08T04:02:25.071Z,1007.02
2017-05-08T04:03:37.643Z,1007.04
2017-05-08T04:04:50.210Z,1007.06
2017-05-08T04:06:02.982Z,1007.01
2017-05-08T04:07:14.903Z,1007.04
2017-05-08T04:08:27.148Z,1007.07
2017-05-08T04:09:39.671Z,1007.09
2017-05-08T04:10:52.218Z,1007.08
2017-05-08T04:12:04.436Z,1007.13
2017-05-08T04:13:16.714Z,1007.16
2017-05-08T04:14:29.257Z,1007.15
2017-05-08T04:15:41.828Z,1007.19
2017-05-08T04:16:54.372Z,1007.15
2017-05-08T04:18:06.593Z,1007.2
2017-05-08T04:19:19.116Z,1007.2
2017-05-08T04:20:31.652Z,1007.2
2017-05-08T04:21:43.595Z,1007.18
2017-05-08T04:22:56.105Z,1007.17
2017-05-08T04:24:08.344Z,1007.17
2017-05-08T04:25:20.866Z,1007.16
2017-05-08T04:26:33.418Z,1007.18
2017-05-08T04:27:45.936Z,1007.19
2017-05-08T04:28:58.478Z,1007.18
2017-05-08T04:30:11.029Z,1007.22
2017-05-08T04:31:23.595Z,1007.22
2017-05-08T04:32:36.117Z,1007.25
2017-05-08T04:33:48.392Z,1007.26
2017-05-08T04:35:00.933Z,1007.26
2017-05-08T04:36:13.183Z,1007.25
2017-05-08T04:37:25.728Z,1007.3
2017-05-08T04:38:38.546Z,1007.31
2017-05-08T04:39:50.794Z,1007.32
2017-05-08T04:41:03.058Z,1007.28
2017-05-08T04:42:15.262Z,1007.28
2017-05-08T04:43:27.805Z,1007.28
2017-05-08T04:44:40.004Z,1007.35
2017-05-08T04:45:52.521Z,1007.29
2017-05-08T04:47:05.046Z,1007.3
2017-05-08T04:48:17.616Z,1007.27
2017-05-08T04:49:30.142Z,1007.28
2017-05-08T04:50:42.058Z,1007.27
2017-05-08T04:51:54.601Z,1007.3
2017-05-08T04:53:06.846Z,1007.31
2017-05-08T04:54:19.393Z,1007.28
2017-05-08T04:55:31.914Z,1007.33
2017-05-08T04:56:44.463Z,1007.27
2017-05-08T04:57:57.007Z,1007.3
2017-05-08T04:59:09.543Z,1007.26
2017-05-08T05:00:21.765Z,1007.3
2017-05-08T05:01:34.321Z,1007.3
2017-05-08T05:02:46.868Z,1007.29
2017-05-08T05:03:59.402Z,1007.26
2017-05-08T05:05:11.940Z,1007.28
2017-05-08T05:06:24.177Z,1007.18
2017-05-08T05:07:36.723Z,1007.21
2017-05-08T05:08:49.248Z,1007.22
2017-05-08T05:10:01.821Z,1007.27
2017-05-08T05:11:14.365Z,1007.25
2017-05-08T05:12:26.906Z,1007.23
2017-05-08T05:13:39.405Z,1007.23
2017-05-08T05:14:51.950Z,1007.21
2017-05-08T05:16:04.475Z,1007.23
2017-05-08T05:17:16.990Z,1007.31
2017-05-08T05:18:29.239Z,1007.38
2017-05-08T05:19:41.781Z,1007.35
2017-05-08T05:20:54.295Z,1007.39
2017-05-08T05:22:06.827Z,1007.35
2017-05-08T05:23:18.765Z,1007.37
2017-05-08T05:24:31.018Z,1007.38
2017-05-08T05:25:43.239Z,1007.42
2017-05-08T05:26:55.188Z,1007.45
2017-05-08T05:28:07.709Z,1007.47
2017-05-08T05:29:19.349Z,1007.49
2017-05-08T05:30:31.875Z,1007.52
2017-05-08T05:31:44.438Z,1007.51
2017-05-08T05:32:56.983Z,1007.54
2017-05-08T05:34:09.483Z,1007.59
2017-05-08T05:35:22.031Z,1007.55
2017-05-08T05:36:34.551Z,1007.58
2017-05-08T05:37:46.497Z,1007.55
2017-05-08T05:38:59.041Z,1007.62
2017-05-08T05:40:10.987Z,1007.59
2017-05-08T05:41:23.508Z,1007.61
2017-05-08T05:42:36.028Z,1007.62
2017-05-08T05:43:48.801Z,1007.6
2017-05-08T05:45:01.323Z,1007.6
2017-05-08T05:46:12.942Z,1007.63
2017-05-08T05:47:25.191Z,1007.65
2017-05-08T05:48:37.742Z,1007.67
2017-05-08T05:49:50.282Z,1007.62
2017-05-08T05:51:02.528Z,1007.61
2017-05-08T05:52:14.145Z,1007.66
2017-05-08T05:53:26.071Z,1007.6
2017-05-08T05:54:38.588Z,1007.62
2017-05-08T05:55:51.112Z,1007.67
2017-05-08T05:57:03.633Z,1007.66
2017-05-08T05:58:16.168Z,1007.65
2017-05-08T05:59:28.390Z,1007.72
2017-05-08T06:00:40.651Z,1007.75
2017-05-08T06:01:52.867Z,1007.73
2017-05-08T06:03:04.815Z,1007.77
2017-05-08T06:04:17.059Z,1007.75
2017-05-08T06:05:29.604Z,1007.71
2017-05-08T06:06:42.126Z,1007.77
2017-05-08T06:07:54.649Z,1007.74
2017-05-08T06:09:07.166Z,1007.75
2017-05-08T06:10:19.703Z,1007.77
2017-05-08T06:11:31.931Z,1007.74
2017-05-08T06:12:44.457Z,1007.76
2017-05-08T06:13:57.001Z,1007.71
2017-05-08T06:15:09.519Z,1007.72
2017-05-08T06:16:22.032Z,1007.73
2017-05-08T06:17:34.535Z,1007.72
2017-05-08T06:18:47.052Z,1007.7
2017-05-08T06:19:59.607Z,1007.73
2017-05-08T06:21:12.148Z,1007.69
2017-05-08T06:22:24.387Z,1007.62
2017-05-08T06:23:36.918Z,1007.61
2017-05-08T06:24:49.457Z,1007.63
2017-05-08T06:26:01.985Z,1007.65
2017-05-08T06:27:14.227Z,1007.64
2017-05-08T06:28:26.730Z,1007.64
2017-05-08T06:29:39.274Z,1007.62
2017-05-08T06:30:51.819Z,1007.64
2017-05-08T06:32:04.382Z,1007.62
2017-05-08T06:33:16.910Z,1007.6
2017-05-08T06:34:29.456Z,1007.61
2017-05-08T06:35:41.999Z,1007.55
2017-05-08T06:36:54.216Z,1007.55
2017-05-08T06:38:07.021Z,1007.56
2017-05-08T06:39:19.262Z,1007.58
2017-05-08T06:40:31.786Z,1007.61
2017-05-08T06:41:43.982Z,1007.63
2017-05-08T06:42:56.521Z,1007.69
2017-05-08T06:44:08.724Z,1007.65
2017-05-08T06:45:20.969Z,1007.64
2017-05-08T06:46:33.208Z,1007.66
2017-05-08T06:47:45.758Z,1007.66
2017-05-08T06:48:58.310Z,1007.71
2017-05-08T06:50:10.828Z,1007.65
2017-05-08T06:51:23.397Z,1007.66
2017-05-08T06:52:35.944Z,1007.73
2017-05-08T06:53:48.217Z,1007.7
2017-05-08T06:55:00.726Z,1007.69
2017-05-08T06:56:12.648Z,1007.75
2017-05-08T06:57:25.176Z,1007.73
2017-05-08T06:58:37.681Z,1007.74
2017-05-08T06:59:50.446Z,1007.74
2017-05-08T07:01:03.006Z,1007.8
2017-05-08T07:02:15.238Z,1007.77
2017-05-08T07:03:27.755Z,1007.78
2017-05-08T07:04:40.251Z,1007.77
2017-05-08T07:05:52.772Z,1007.77
2017-05-08T07:07:05.318Z,1007.77
2017-05-08T07:08:17.568Z,1007.72
2017-05-08T07:09:30.107Z,1007.7
2017-05-08T07:10:42.630Z,1007.74
2017-05-08T07:11:55.159Z,1007.76
2017-05-08T07:13:07.393Z,1007.75
2017-05-08T07:14:19.344Z,1007.76
2017-05-08T07:15:31.865Z,1007.8
2017-05-08T07:16:44.060Z,1007.78
2017-05-08T07:17:56.606Z,1007.82
2017-05-08T07:19:09.130Z,1007.77
2017-05-08T07:20:21.356Z,1007.75
2017-05-08T07:21:33.573Z,1007.83
2017-05-08T07:22:45.199Z,1007.83
2017-05-08T07:23:57.750Z,1007.8
2017-05-08T07:25:10.285Z,1007.79
2017-05-08T07:26:22.832Z,1007.76
2017-05-08T07:27:35.053Z,1007.77
2017-05-08T07:28:47.291Z,1007.78
2017-05-08T07:29:59.814Z,1007.81
2017-05-08T07:31:12.037Z,1007.79
2017-05-08T07:32:24.604Z,1007.84
2017-05-08T07:33:36.848Z,1007.8
2017-05-08T07:34:48.773Z,1007.81
2017-05-08T07:36:00.726Z,1007.82
2017-05-08T07:37:13.268Z,1007.83
2017-05-08T07:38:25.488Z,1007.83
2017-05-08T07:39:37.736Z,1007.87
2017-05-08T07:40:50.263Z,1007.88
2017-05-08T07:42:02.177Z,1007.89
2017-05-08T07:43:15.024Z,1007.86
2017-05-08T07:44:27.220Z,1007.88
2017-05-08T07:45:39.454Z,1007.85
2017-05-08T07:46:51.966Z,1007.82
2017-05-08T07:48:04.496Z,1007.85
2017-05-08T07:49:16.735Z,1007.85
2017-05-08T07:50:29.248Z,1007.84
2017-05-08T07:51:41.488Z,1007.9
2017-05-08T07:52:53.418Z,1007.83
2017-05-08T07:54:05.984Z,1007.85
2017-05-08T07:55:18.497Z,1007.83
2017-05-08T07:56:31.022Z,1007.86
2017-05-08T07:57:42.642Z,1007.9
2017-05-08T07:58:54.867Z,1007.86
2017-05-08T08:00:06.820Z,1007.85
2017-05-08T08:01:19.384Z,1007.9
2017-05-08T08:02:31.901Z,1007.91
2017-05-08T08:03:43.854Z,1007.9
2017-05-08T08:04:56.088Z,1007.95
2017-05-08T08:06:08.018Z,1007.97
2017-05-08T08:07:19.914Z,1008.01
2017-05-08T08:08:32.453Z,1007.98
2017-05-08T08:09:45.013Z,1008.05
2017-05-08T08:10:56.930Z,1008
2017-05-08T08:12:09.172Z,1008.07
2017-05-08T08:13:21.698Z,1008.06
2017-05-08T08:14:34.218Z,1008.04
2017-05-08T08:15:46.457Z,1008.03
2017-05-08T08:16:58.659Z,1008
2017-05-08T08:18:10.607Z,1008.05
2017-05-08T08:19:22.548Z,1008.02
2017-05-08T08:20:34.794Z,1008.01
2017-05-08T08:21:47.020Z,1008.07
2017-05-08T08:22:59.255Z,1008.09
2017-05-08T08:24:11.484Z,1008.09
2017-05-08T08:25:24.028Z,1008.08
2017-05-08T08:26:36.626Z,1008.01
2017-05-08T08:27:48.895Z,1008.09
2017-05-08T08:29:01.116Z,1008.08
2017-05-08T08:30:13.340Z,1008.1
2017-05-08T08:31:25.586Z,1008.11
2017-05-08T08:32:37.817Z,1008.24
2017-05-08T08:33:50.025Z,1008.25
2017-05-08T08:35:01.975Z,1008.26
2017-05-08T08:36:14.516Z,1008.21
2017-05-08T08:37:27.340Z,1008.35
2017-05-08T08:38:39.587Z,1008.33
2017-05-08T08:39:51.211Z,1008.27
2017-05-08T08:41:03.743Z,1008.24
2017-05-08T08:42:16.301Z,1008.31
2017-05-08T08:43:28.541Z,1008.33
2017-05-08T08:44:40.173Z,1008.32
2017-05-08T08:45:52.713Z,1008.3
2017-05-08T08:47:04.631Z,1008.29
2017-05-08T08:48:16.533Z,1008.27
2017-05-08T08:49:28.778Z,1008.22
2017-05-08T08:50:41.297Z,1008.31
2017-05-08T08:51:53.505Z,1008.29
2017-05-08T08:53:05.438Z,1008.32
2017-05-08T08:54:17.976Z,1008.39
2017-05-08T08:55:30.231Z,1008.37
2017-05-08T08:56:42.477Z,1008.34
2017-05-08T08:57:54.397Z,1008.34
2017-05-08T08:59:06.869Z,1008.34
2017-05-08T09:00:19.111Z,1008.38
2017-05-08T09:01:31.677Z,1008.44
2017-05-08T09:02:44.224Z,1008.52
2017-05-08T09:03:56.469Z,1008.56
2017-05-08T09:05:08.394Z,1008.44
2017-05-08T09:06:20.942Z,1008.41
2017-05-08T09:07:33.478Z,1008.59
2017-05-08T09:08:46.027Z,1008.48
2017-05-08T09:09:58.262Z,1008.59
2017-05-08T09:11:10.477Z,1008.61
2017-05-08T09:12:22.722Z,1008.58
2017-05-08T09:13:34.965Z,1008.86
2017-05-08T09:14:46.614Z,1008.9
2017-05-08T09:15:58.235Z,1008.8
2017-05-08T09:17:10.774Z,1008.84
2017-05-08T09:18:23.028Z,1008.66
2017-05-08T09:19:35.263Z,1008.73
2017-05-08T09:20:47.793Z,1008.52
2017-05-08T09:22:00.036Z,1008.44
2017-05-08T09:23:12.262Z,1008.5
2017-05-08T09:24:24.781Z,1008.54
2017-05-08T09:25:37.327Z,1008.6
2017-05-08T09:26:49.545Z,1008.54
2017-05-08T09:28:02.086Z,1008.6
2017-05-08T09:29:14.633Z,1008.46
2017-05-08T09:30:26.888Z,1008.38
2017-05-08T09:31:39.433Z,1008.44
2017-05-08T09:32:51.957Z,1008.45
2017-05-08T09:34:04.490Z,1008.48
2017-05-08T09:35:17.024Z,1008.45
2017-05-08T09:36:29.586Z,1008.48
2017-05-08T09:37:41.512Z,1008.46
2017-05-08T09:38:53.749Z,1008.5
2017-05-08T09:40:05.374Z,1008.54
2017-05-08T09:41:17.326Z,1008.55
2017-05-08T09:42:29.597Z,1008.54
2017-05-08T09:43:41.239Z,1008.55
2017-05-08T09:44:53.485Z,1008.53
2017-05-08T09:46:05.110Z,1008.54
2017-05-08T09:47:17.655Z,1008.57
2017-05-08T09:48:29.901Z,1008.55
2017-05-08T09:49:42.148Z,1008.48
2017-05-08T09:50:54.109Z,1008.6
2017-05-08T09:52:06.366Z,1008.58
2017-05-08T09:53:18.598Z,1008.67
2017-05-08T09:54:30.801Z,1008.71
2017-05-08T09:55:43.048Z,1008.81
2017-05-08T09:56:55.289Z,1008.77
2017-05-08T09:58:07.534Z,1008.66
2017-05-08T09:59:19.761Z,1008.59
2017-05-08T10:00:32.297Z,1008.56
2017-05-08T10:01:44.535Z,1008.53
2017-05-08T10:02:56.153Z,1008.59
2017-05-08T10:04:08.376Z,1008.6
2017-05-08T10:05:20.320Z,1008.58
2017-05-08T10:06:32.553Z,1008.64
2017-05-08T10:07:45.090Z,1008.66
2017-05-08T10:08:57.330Z,1008.58
2017-05-08T10:10:09.294Z,1008.56
2017-05-08T10:11:21.198Z,1008.61
2017-05-08T10:12:33.440Z,1008.62
2017-05-08T10:13:45.961Z,1008.64
2017-05-08T10:14:58.206Z,1008.57
2017-05-08T10:16:10.732Z,1008.55
2017-05-08T10:17:23.249Z,1008.59
2017-05-08T10:18:35.826Z,1008.54
2017-05-08T10:19:48.395Z,1008.54
2017-05-08T10:21:00.929Z,1008.5
2017-05-08T10:22:13.160Z,1008.53
2017-05-08T10:23:25.706Z,1008.66
2017-05-08T10:24:37.932Z,1008.64
2017-05-08T10:25:50.198Z,1008.59
2017-05-08T10:27:02.444Z,1008.55
2017-05-08T10:28:14.661Z,1008.51
2017-05-08T10:29:27.208Z,1008.5
2017-05-08T10:30:39.759Z,1008.53
2017-05-08T10:31:51.975Z,1008.57
2017-05-08T10:33:04.499Z,1008.58
2017-05-08T10:34:17.022Z,1008.57
2017-05-08T10:35:29.588Z,1008.59
2017-05-08T10:36:41.811Z,1008.79
2017-05-08T10:37:54.050Z,1008.67
2017-05-08T10:39:06.295Z,1008.58
2017-05-08T10:40:18.795Z,1008.55
2017-05-08T10:41:31.016Z,1008.55
2017-05-08T10:42:43.568Z,1008.56
2017-05-08T10:43:55.787Z,1008.59
2017-05-08T10:45:08.026Z,1008.53
2017-05-08T10:46:20.226Z,1008.5
2017-05-08T10:47:32.442Z,1008.5
2017-05-08T10:48:44.995Z,1008.47
2017-05-08T10:49:57.513Z,1008.52
2017-05-08T10:51:10.064Z,1008.51
2017-05-08T10:52:22.008Z,1008.52
2017-05-08T10:53:34.559Z,1008.48
2017-05-08T10:54:47.090Z,1008.46
2017-05-08T10:55:59.323Z,1008.52
2017-05-08T10:57:11.866Z,1008.52
2017-05-08T10:58:24.413Z,1008.54
2017-05-08T10:59:36.958Z,1008.56
2017-05-08T11:00:49.501Z,1008.57
2017-05-08T11:02:01.429Z,1008.6
2017-05-08T11:03:13.997Z,1008.59
2017-05-08T11:04:25.935Z,1008.55
2017-05-08T11:05:37.866Z,1008.57
2017-05-08T11:06:49.534Z,1008.56
2017-05-08T11:08:01.773Z,1008.58
2017-05-08T11:09:13.998Z,1008.58
2017-05-08T11:10:26.522Z,1008.58
2017-05-08T11:11:39.073Z,1008.65
2017-05-08T11:12:51.639Z,1008.63
2017-05-08T11:14:03.860Z,1008.67
2017-05-08T11:15:16.423Z,1008.65
2017-05-08T11:16:28.950Z,1008.75
2017-05-08T11:17:41.148Z,1008.67
2017-05-08T11:18:53.695Z,1008.6
2017-05-08T11:20:05.336Z,1008.66
2017-05-08T11:21:17.863Z,1008.69
2017-05-08T11:22:30.427Z,1008.65
2017-05-08T11:23:42.677Z,1008.84
2017-05-08T11:24:54.916Z,1008.82
2017-05-08T11:26:07.458Z,1008.77
2017-05-08T11:27:19.416Z,1008.76
2017-05-08T11:28:31.938Z,1008.71
2017-05-08T11:29:44.208Z,1008.72
2017-05-08T11:30:56.745Z,1008.75
2017-05-08T11:32:09.277Z,1008.7
2017-05-08T11:33:21.819Z,1008.71
2017-05-08T11:34:34.362Z,1008.67
2017-05-08T11:35:46.611Z,1008.67
2017-05-08T11:36:58.836Z,1008.69
2017-05-08T11:38:11.086Z,1008.66
2017-05-08T11:39:23.616Z,1008.66
2017-05-08T11:40:36.148Z,1008.69
2017-05-08T11:41:48.682Z,1008.65
2017-05-08T11:43:00.934Z,1008.67
2017-05-08T11:44:13.153Z,1008.7
2017-05-08T11:45:25.070Z,1008.68
2017-05-08T11:46:37.279Z,1008.64
2017-05-08T11:47:49.534Z,1008.69
2017-05-08T11:49:02.081Z,1008.64
2017-05-08T11:50:14.314Z,1008.68
2017-05-08T11:51:26.858Z,1008.69
2017-05-08T11:52:39.114Z,1008.65
2017-05-08T11:53:51.328Z,1008.65
2017-05-08T11:55:03.259Z,1008.64
2017-05-08T11:56:14.881Z,1008.64
2017-05-08T11:57:27.110Z,1008.66
2017-05-08T11:58:39.333Z,1008.69
2017-05-08T11:59:50.671Z,1008.64
2017-05-08T12:01:03.201Z,1008.73
2017-05-08T12:02:15.143Z,1008.67
2017-05-08T12:03:27.706Z,1008.66
2017-05-08T12:04:39.614Z,1008.64
2017-05-08T12:05:51.858Z,1008.68
2017-05-08T12:07:04.124Z,1008.62
2017-05-08T12:08:16.323Z,1008.67
2017-05-08T12:09:28.869Z,1008.6
2017-05-08T12:10:41.144Z,1008.67
2017-05-08T12:11:53.686Z,1008.78
2017-05-08T12:13:05.299Z,1008.75
2017-05-08T12:14:17.549Z,1008.79
2017-05-08T12:15:28.874Z,1008.77
2017-05-08T12:16:41.100Z,1008.79
2017-05-08T12:17:53.633Z,1008.81
2017-05-08T12:19:06.163Z,1008.77
2017-05-08T12:20:17.787Z,1008.77
2017-05-08T12:21:30.004Z,1008.88
2017-05-08T12:22:42.224Z,1008.8
2017-05-08T12:23:54.445Z,1008.79
2017-05-08T12:25:06.987Z,1008.81
2017-05-08T12:26:19.244Z,1008.86
2017-05-08T12:27:31.786Z,1008.87
2017-05-08T12:28:43.431Z,1008.84
2017-05-08T12:29:55.680Z,1008.86
2017-05-08T12:31:07.921Z,1008.88
2017-05-08T12:32:20.148Z,1008.79
2017-05-08T12:33:32.362Z,1008.76
2017-05-08T12:34:44.559Z,1008.79
2017-05-08T12:35:56.811Z,1008.83
2017-05-08T12:37:09.367Z,1008.85
2017-05-08T12:38:21.900Z,1008.83
2017-05-08T12:39:34.417Z,1008.79
2017-05-08T12:40:46.955Z,1008.85
2017-05-08T12:41:59.159Z,1008.84
2017-05-08T12:43:11.385Z,1008.83
2017-05-08T12:44:23.626Z,1008.83
2017-05-08T12:45:36.164Z,1008.89
2017-05-08T12:46:48.091Z,1008.88
2017-05-08T12:48:00.343Z,1008.8
2017-05-08T12:49:12.592Z,1008.83
2017-05-08T12:50:24.231Z,1008.89
2017-05-08T12:51:36.780Z,1008.9
2017-05-08T12:52:49.322Z,1008.93
2017-05-08T12:54:01.847Z,1008.95
2017-05-08T12:55:14.089Z,1008.96
2017-05-08T12:56:26.639Z,1008.88
2017-05-08T12:57:39.191Z,1008.89
2017-05-08T12:58:51.444Z,1008.9
2017-05-08T13:00:03.955Z,1008.86
2017-05-08T13:01:16.494Z,1008.86
2017-05-08T13:02:28.732Z,1008.85
2017-05-08T13:03:41.265Z,1008.84
2017-05-08T13:04:53.476Z,1008.86
2017-05-08T13:06:06.047Z,1008.84
2017-05-08T13:07:17.694Z,1008.83
2017-05-08T13:08:29.948Z,1008.84
2017-05-08T13:09:42.193Z,1008.87
2017-05-08T13:10:54.745Z,1008.84
2017-05-08T13:12:06.982Z,1008.78
2017-05-08T13:13:19.520Z,1008.91
2017-05-08T13:14:32.027Z,1008.93
2017-05-08T13:15:44.573Z,1008.8
2017-05-08T13:16:57.108Z,1008.88
2017-05-08T13:18:08.757Z,1008.82
2017-05-08T13:19:21.255Z,1008.87
2017-05-08T13:20:33.507Z,1008.76
2017-05-08T13:21:46.051Z,1008.77
2017-05-08T13:22:58.591Z,1008.85
2017-05-08T13:24:10.791Z,1009.04
2017-05-08T13:25:23.341Z,1009.23
2017-05-08T13:26:35.586Z,1009.31
2017-05-08T13:27:48.130Z,1009.32
2017-05-08T13:29:00.679Z,1009.33
2017-05-08T13:30:12.924Z,1009.27
2017-05-08T13:31:25.184Z,1009.31
2017-05-08T13:32:37.412Z,1009.42
2017-05-08T13:33:49.951Z,1009.42
2017-05-08T13:35:02.158Z,1009.46
2017-05-08T13:36:14.380Z,1009.57
2017-05-08T13:37:26.913Z,1009.46
2017-05-08T13:38:39.144Z,1009.48
2017-05-08T13:39:51.389Z,1009.53
2017-05-08T13:41:03.879Z,1009.57
2017-05-08T13:42:15.807Z,1009.52
2017-05-08T13:43:28.351Z,1009.48
2017-05-08T13:44:40.596Z,1009.59
2017-05-08T13:45:52.842Z,1009.6
2017-05-08T13:47:05.414Z,1009.71
2017-05-08T13:48:17.915Z,1009.61
2017-05-08T13:49:30.457Z,1009.66
2017-05-08T13:50:42.676Z,1009.66
2017-05-08T13:51:54.597Z,1009.7
2017-05-08T13:53:07.123Z,1009.66
2017-05-08T13:54:19.362Z,1009.65
2017-05-08T13:55:31.581Z,1009.77
2017-05-08T13:56:44.118Z,1009.73
2017-05-08T13:57:56.354Z,1009.84
2017-05-08T13:59:08.890Z,1009.82
2017-05-08T14:00:21.440Z,1009.75
2017-05-08T14:01:33.995Z,1009.83
2017-05-08T14:02:46.539Z,1009.84
2017-05-08T14:03:58.508Z,1009.88
2017-05-08T14:05:10.755Z,1009.86
2017-05-08T14:06:22.673Z,1009.91
2017-05-08T14:07:34.897Z,1009.87
2017-05-08T14:08:47.415Z,1009.9
2017-05-08T14:09:59.940Z,1009.93
2017-05-08T14:11:12.484Z,1009.96
2017-05-08T14:12:25.027Z,1010.05
2017-05-08T14:13:37.577Z,1010.07
2017-05-08T14:14:50.093Z,1010.01
2017-05-08T14:16:02.316Z,1010
2017-05-08T14:17:14.866Z,1010.03
2017-05-08T14:18:27.407Z,1010.05
2017-05-08T14:19:39.657Z,1010.03
2017-05-08T14:20:52.178Z,1010.06
2017-05-08T14:22:04.398Z,1010.05
2017-05-08T14:23:16.965Z,1010.09
2017-05-08T14:24:29.196Z,1010.19
2017-05-08T14:25:41.757Z,1010.14
2017-05-08T14:26:54.279Z,1010.13
2017-05-08T14:28:06.520Z,1010.07
2017-05-08T14:29:18.424Z,1010.03
2017-05-08T14:30:30.967Z,1010.07
2017-05-08T14:31:43.512Z,1010.05
2017-05-08T14:32:56.054Z,1010.18
2017-05-08T14:34:08.285Z,1010.27
2017-05-08T14:35:20.800Z,1010.09
2017-05-08T14:36:33.022Z,1010.13
2017-05-08T14:37:45.570Z,1010.27
2017-05-08T14:38:58.112Z,1010.22